Time;durP1;ratioP1;P1;durP2;ratioP2;P2;SDS_P1;SDS_P2;PMS_P1;PMS_P2;Temp;Humidity;BMP_temperature;BMP_pressure;BME280_temperature;BME280_humidity;BME280_pressure;Samples;Min_cycle;Max_cycle;Signal;HPM_P1;HPM_P2
2022/10/24 00:00:17;;;;;;;3.00;1.40;;;;;;;13.12;100.00;99994.59;5178856;28;20497;-73
2022/10/24 00:02:48;;;;;;;3.95;1.20;;;;;;;13.07;100.00;100001.88;5174957;28;20038;-73
2022/10/24 00:05:18;;;;;;;3.70;1.55;;;;;;;13.08;100.00;100011.44;5170765;28;20028;-72
2022/10/24 00:07:49;;;;;;;5.60;1.65;;;;;;;13.10;100.00;100015.66;5168987;28;20049;-73
2022/10/24 00:10:19;;;;;;;4.05;1.65;;;;;;;13.20;100.00;100009.00;5169260;28;20019;-73
2022/10/24 00:12:52;;;;;;;4.28;1.63;;;;;;;13.28;100.00;100004.19;5166761;28;20038;-73
2022/10/24 00:15:23;;;;;;;4.43;1.50;;;;;;;13.17;100.00;100008.28;5168212;28;20400;-73
2022/10/24 00:17:53;;;;;;;2.95;1.40;;;;;;;13.14;100.00;100003.22;5173466;28;20046;-73
2022/10/24 00:20:23;;;;;;;3.78;1.33;;;;;;;13.18;100.00;100004.75;5163576;28;20108;-73
2022/10/24 00:22:54;;;;;;;3.67;1.42;;;;;;;13.14;100.00;100000.59;5169884;28;20053;-73
2022/10/24 00:25:24;;;;;;;3.65;1.30;;;;;;;13.17;100.00;99997.81;5172058;28;20161;-73
2022/10/24 00:27:54;;;;;;;4.75;1.40;;;;;;;13.19;100.00;99995.94;5172779;28;20034;-73
2022/10/24 00:30:25;;;;;;;4.03;1.38;;;;;;;13.20;100.00;99997.66;5170331;28;20430;-73
2022/10/24 00:32:55;;;;;;;4.20;1.30;;;;;;;13.37;100.00;99989.69;5171626;28;20030;-73
2022/10/24 00:35:25;;;;;;;3.22;1.40;;;;;;;13.45;100.00;99992.72;5172256;28;20029;-72
2022/10/24 00:37:56;;;;;;;2.55;1.10;;;;;;;13.44;100.00;99999.72;5170476;28;20033;-73
2022/10/24 00:40:26;;;;;;;2.30;1.35;;;;;;;13.59;100.00;99995.41;5170724;28;20030;-73
2022/10/24 00:42:56;;;;;;;5.47;1.73;;;;;;;13.81;100.00;99993.25;5169812;28;20030;-72
2022/10/24 00:45:55;;;;;;;6.68;1.40;;;;;;;13.86;100.00;99991.19;5174232;28;20034;-73
2022/10/24 00:48:38;;;;;;;6.55;1.70;;;;;;;13.82;100.00;99980.03;5168542;28;20040;-72
2022/10/24 00:51:41;;;;;;;7.00;1.60;;;;;;;13.80;100.00;99975.78;5169309;28;20026;-73
2022/10/24 00:54:12;;;;;;;4.85;1.40;;;;;;;13.81;100.00;99969.59;5146049;28;20276;-72
2022/10/24 00:57:00;;;;;;;2.88;1.52;;;;;;;13.77;100.00;99968.94;5173549;28;20050;-73
2022/10/24 00:59:33;;;;;;;6.03;1.80;;;;;;;13.78;100.00;99968.00;5169703;28;20038;-73
2022/10/24 01:02:04;;;;;;;5.38;1.88;;;;;;;13.78;100.00;99975.88;5171882;28;20029;-73
2022/10/24 01:04:34;;;;;;;5.50;1.60;;;;;;;13.82;100.00;99966.03;5173530;28;20032;-72
2022/10/24 01:07:16;;;;;;;5.22;2.00;;;;;;;13.96;100.00;99979.22;5168652;28;20162;-73
2022/10/24 01:09:58;;;;;;;6.63;1.60;;;;;;;13.93;100.00;99976.78;5172048;28;20036;-73
2022/10/24 01:12:47;;;;;;;6.72;1.77;;;;;;;13.93;100.00;99966.28;5169813;28;20103;-73
2022/10/24 01:15:24;;;;;;;4.07;2.00;;;;;;;13.94;100.00;99975.84;5176792;28;20026;-73
2022/10/24 01:18:01;;;;;;;8.48;2.20;;;;;;;13.94;100.00;99971.41;5170241;28;20571;-72
2022/10/24 01:20:50;;;;;;;4.05;1.80;;;;;;;13.96;100.00;99968.72;5167823;28;20033;-73
2022/10/24 01:23:58;;;;;;;5.00;1.60;;;;;;;13.95;100.00;99965.22;5169501;28;20075;-73
2022/10/24 01:26:47;;;;;;;6.80;1.90;;;;;;;13.95;100.00;99961.75;5171573;28;20058;-72
2022/10/24 01:29:38;;;;;;;10.32;1.95;;;;;;;13.91;100.00;99971.59;5169310;28;20034;-73
2022/10/24 01:32:27;;;;;;;4.78;1.73;;;;;;;13.89;100.00;99962.13;5173265;28;20087;-73
2022/10/24 01:35:12;;;;;;;6.40;2.30;;;;;;;14.01;100.00;99957.00;5169123;28;20149;-73
2022/10/24 01:38:20;;;;;;;5.68;2.00;;;;;;;14.02;100.00;99955.19;5159369;28;20026;-73
2022/10/24 01:40:56;;;;;;;6.50;1.90;;;;;;;14.08;100.00;99960.13;5170619;28;20476;-73
2022/10/24 01:43:32;;;;;;;6.90;2.08;;;;;;;14.02;100.00;99956.06;5173393;28;20494;-73
2022/10/24 01:46:08;;;;;;;6.30;1.90;;;;;;;14.13;100.00;99955.41;5160881;28;20077;-73
2022/10/24 01:48:46;;;;;;;4.22;1.90;;;;;;;14.09;100.00;99948.66;5168557;28;20030;-72
2022/10/24 01:51:20;;;;;;;10.15;1.95;;;;;;;14.08;100.00;99962.75;5169597;28;20578;-73
2022/10/24 01:53:51;;;;;;;6.70;2.05;;;;;;;14.07;100.00;99966.31;5173901;28;20064;-72
2022/10/24 01:56:24;;;;;;;6.00;2.15;;;;;;;14.12;100.00;99958.97;5171773;28;20030;-71
2022/10/24 01:59:29;;;;;;;5.18;2.05;;;;;;;14.09;100.00;99970.50;5169254;28;20057;-73
2022/10/24 02:02:08;;;;;;;5.53;1.92;;;;;;;14.09;100.00;99974.94;5171188;28;20053;-72
2022/10/24 02:05:08;;;;;;;5.88;2.00;;;;;;;14.02;100.00;99968.34;5170950;28;20492;-72
2022/10/24 02:07:42;;;;;;;9.45;2.50;;;;;;;13.98;100.00;99966.84;5168825;28;20033;-73
2022/10/24 02:10:18;;;;;;;11.32;2.78;;;;;;;14.00;100.00;99964.97;5166840;28;20485;-72
2022/10/24 02:12:53;;;;;;;7.07;2.10;;;;;;;14.11;100.00;99957.28;5170628;28;20030;-73
2022/10/24 02:15:28;;;;;;;8.00;1.85;;;;;;;14.11;100.00;99946.78;5169633;28;20030;-73
2022/10/24 02:17:58;;;;;;;6.05;2.17;;;;;;;14.15;100.00;99941.25;5167146;28;20073;-73
2022/10/24 02:20:41;;;;;;;12.90;2.40;;;;;;;14.24;100.00;99942.53;5161023;28;20061;-73
2022/10/24 02:23:24;;;;;;;7.60;2.20;;;;;;;14.23;100.00;99941.66;5170516;28;20476;-72
2022/10/24 02:25:59;;;;;;;7.20;2.00;;;;;;;14.06;100.00;99935.72;5170005;28;20034;-72
2022/10/24 02:28:36;;;;;;;7.70;1.83;;;;;;;14.07;100.00;99929.53;5165608;28;20041;-72
2022/10/24 02:31:20;;;;;;;6.03;1.90;;;;;;;13.82;100.00;99934.53;5169400;28;20531;-73
2022/10/24 02:33:52;;;;;;;9.75;1.88;;;;;;;13.86;100.00;99928.16;5163592;28;20137;-73
2022/10/24 02:36:27;;;;;;;5.97;1.67;;;;;;;13.60;100.00;99939.34;5162972;28;20038;-72
2022/10/24 02:38:59;;;;;;;5.93;1.87;;;;;;;13.52;100.00;99936.28;5168657;28;20041;-72
2022/10/24 02:41:34;;;;;;;4.57;1.75;;;;;;;13.50;100.00;99931.16;5168638;28;20511;-72
2022/10/24 02:44:07;;;;;;;4.93;2.00;;;;;;;13.46;100.00;99928.78;5169986;28;20390;-72
2022/10/24 02:46:38;;;;;;;5.65;1.80;;;;;;;13.30;100.00;99933.22;5167069;28;20721;-73
2022/10/24 02:49:08;;;;;;;5.80;1.98;;;;;;;13.22;100.00;99930.19;5163597;28;20578;-73
2022/10/24 02:51:43;;;;;;;4.50;1.60;;;;;;;13.10;100.00;99931.69;5163971;28;20148;-72
2022/10/24 02:54:14;;;;;;;4.40;1.67;;;;;;;13.07;100.00;99926.63;5169759;28;20073;-72
2022/10/24 02:56:56;;;;;;;6.72;1.73;;;;;;;12.98;100.00;99924.53;5166226;28;20370;-72
2022/10/24 02:59:28;;;;;;;2.75;1.40;;;;;;;12.87;100.00;99912.94;5167422;28;20041;-72
2022/10/24 03:01:58;;;;;;;9.48;1.80;;;;;;;12.75;100.00;99915.34;5166959;28;20384;-73
2022/10/24 03:04:28;;;;;;;4.80;1.60;;;;;;;12.78;100.00;99916.03;5161712;28;20037;-72
2022/10/24 03:06:59;;;;;;;7.22;1.92;;;;;;;12.62;100.00;99922.22;5163406;28;20033;-72
2022/10/24 03:09:29;;;;;;;6.25;1.75;;;;;;;12.55;100.00;99924.31;5169832;28;20038;-72
2022/10/24 03:11:59;;;;;;;7.30;1.90;;;;;;;12.52;100.00;99921.88;5169316;28;20037;-72
2022/10/24 03:14:30;;;;;;;3.75;1.65;;;;;;;12.58;100.00;99928.53;5167000;28;20038;-72
2022/10/24 03:17:00;;;;;;;3.53;1.65;;;;;;;12.53;100.00;99926.19;5165864;28;20024;-72
2022/10/24 03:19:31;;;;;;;9.40;2.10;;;;;;;12.48;100.00;99925.56;5158261;28;20037;-72
2022/10/24 03:22:01;;;;;;;4.93;1.85;;;;;;;12.45;100.00;99917.03;5166610;28;20132;-72
2022/10/24 03:24:31;;;;;;;6.97;2.03;;;;;;;12.48;100.00;99925.56;5167582;28;20076;-72
2022/10/24 03:27:01;;;;;;;17.08;8.65;;;;;;;12.45;100.00;99922.28;5165391;28;20057;-72
2022/10/24 03:29:32;;;;;;;13.25;8.20;;;;;;;12.47;100.00;99930.91;5168831;28;20048;-72
2022/10/24 03:32:02;;;;;;;18.77;8.35;;;;;;;12.49;100.00;99916.75;5167025;28;20049;-72
2022/10/24 03:34:33;;;;;;;7.40;3.75;;;;;;;12.58;100.00;99923.28;5161622;28;20335;-72
2022/10/24 03:37:03;;;;;;;5.72;2.33;;;;;;;12.62;100.00;99917.81;5167946;28;20049;-72
2022/10/24 03:39:33;;;;;;;9.90;2.33;;;;;;;12.59;100.00;99917.97;5168955;28;20025;-73
2022/10/24 03:42:04;;;;;;;8.02;2.40;;;;;;;12.63;100.00;99911.63;5168005;28;20030;-72
2022/10/24 03:44:34;;;;;;;7.00;2.03;;;;;;;12.64;100.00;99917.72;5166965;28;20022;-72
2022/10/24 03:47:04;;;;;;;6.35;2.20;;;;;;;12.57;100.00;99927.69;5164880;28;20028;-72
2022/10/24 03:49:35;;;;;;;4.22;1.88;;;;;;;12.59;100.00;99924.97;5164278;28;20027;-72
2022/10/24 03:52:05;;;;;;;8.32;2.30;;;;;;;12.55;100.00;99924.31;5168644;28;20040;-72
2022/10/24 03:54:37;;;;;;;8.23;2.33;;;;;;;12.54;100.00;99916.53;5166383;28;20022;-72
2022/10/24 03:57:08;;;;;;;7.57;3.00;;;;;;;12.50;100.00;99921.06;5163806;28;20030;-72
2022/10/24 03:59:39;;;;;;;7.68;2.72;;;;;;;12.49;100.00;99908.91;5164964;28;20057;-72
2022/10/24 04:02:09;;;;;;;9.18;2.40;;;;;;;12.49;100.00;99911.53;5164483;28;20056;-73
2022/10/24 04:04:40;;;;;;;9.40;2.35;;;;;;;12.50;100.00;99897.47;5167969;28;20488;-73
2022/10/24 04:07:11;;;;;;;7.82;2.03;;;;;;;12.50;100.00;99904.53;5166605;28;20030;-72
2022/10/24 04:09:41;;;;;;;6.78;1.95;;;;;;;12.58;100.00;99908.41;5169684;28;20407;-72
2022/10/24 04:12:11;;;;;;;6.32;2.10;;;;;;;12.29;100.00;99905.69;5166540;28;20458;-72
2022/10/24 04:14:41;;;;;;;5.07;1.67;;;;;;;12.22;100.00;99905.16;5166448;28;20040;-72
2022/10/24 04:17:12;;;;;;;7.15;1.90;;;;;;;12.12;100.00;99909.16;5169837;28;20096;-72
2022/10/24 04:19:42;;;;;;;8.73;2.15;;;;;;;12.02;100.00;99913.22;5168538;28;20052;-72
2022/10/24 04:22:12;;;;;;;5.80;2.55;;;;;;;12.06;100.00;99909.50;5174062;28;20034;-72
2022/10/24 04:24:43;;;;;;;9.68;3.05;;;;;;;12.05;100.00;99910.44;5169356;28;20037;-71
2022/10/24 04:27:13;;;;;;;7.03;3.10;;;;;;;12.09;100.00;99909.34;5165086;28;20030;-72
2022/10/24 04:29:43;;;;;;;7.53;2.72;;;;;;;12.15;100.00;99906.38;5164542;28;20041;-71
2022/10/24 04:32:14;;;;;;;9.35;4.28;;;;;;;12.21;100.00;99915.69;5166844;28;20053;-72
2022/10/24 04:34:44;;;;;;;30.95;15.13;;;;;;;12.21;100.00;99907.84;5167203;28;20030;-72
2022/10/24 04:37:14;;;;;;;28.13;13.00;;;;;;;12.25;100.00;99911.97;5167781;28;20058;-72
2022/10/24 04:39:44;;;;;;;30.00;13.70;;;;;;;12.27;100.00;99918.84;5165966;28;20027;-72
2022/10/24 04:42:15;;;;;;;16.92;7.90;;;;;;;12.31;100.00;99915.13;5171914;28;20117;-72
2022/10/24 04:44:45;;;;;;;16.80;7.25;;;;;;;12.31;100.00;99914.28;5166705;28;20040;-72
2022/10/24 04:47:16;;;;;;;11.73;3.88;;;;;;;12.33;100.00;99923.75;5172540;28;20518;-72
2022/10/24 04:49:46;;;;;;;12.75;4.20;;;;;;;12.28;100.00;99914.47;5177064;28;20029;-72
2022/10/24 04:52:16;;;;;;;9.38;3.38;;;;;;;12.31;100.00;99914.28;5169966;28;20034;-72
2022/10/24 04:54:47;;;;;;;9.70;3.15;;;;;;;12.25;100.00;99904.97;5171189;28;20037;-72
2022/10/24 04:57:17;;;;;;;11.25;3.25;;;;;;;12.31;100.00;99914.28;5168144;28;20577;-72
2022/10/24 04:59:47;;;;;;;9.27;2.60;;;;;;;12.33;100.00;99897.53;5166245;28;20026;-72
2022/10/24 05:02:18;;;;;;;6.75;2.42;;;;;;;12.40;100.00;99904.16;5169031;28;20109;-72
2022/10/24 05:04:48;;;;;;;7.57;2.50;;;;;;;12.40;100.00;99895.44;5171779;28;20570;-72
2022/10/24 05:07:20;;;;;;;8.38;2.50;;;;;;;12.56;100.00;99898.94;5177434;28;20408;-72
2022/10/24 05:09:50;;;;;;;10.27;2.58;;;;;;;12.49;100.00;99903.66;5170538;28;20092;-73
2022/10/24 05:12:21;;;;;;;11.00;2.80;;;;;;;12.42;100.00;99901.44;5175404;28;20034;-72
2022/10/24 05:14:51;;;;;;;5.28;2.28;;;;;;;12.47;100.00;99895.03;5164488;28;20084;-72
2022/10/24 05:17:21;;;;;;;9.02;2.70;;;;;;;12.49;100.00;99893.19;5170687;28;20109;-72
2022/10/24 05:19:52;;;;;;;9.98;2.90;;;;;;;12.43;100.00;99892.69;5169656;28;20034;-72
2022/10/24 05:22:23;;;;;;;9.02;2.33;;;;;;;12.43;100.00;99892.69;5168714;28;20040;-72
2022/10/24 05:24:53;;;;;;;9.63;3.17;;;;;;;12.37;100.00;99888.63;5168632;28;20384;-72
2022/10/24 05:27:24;;;;;;;9.10;2.38;;;;;;;12.32;100.00;99888.00;5165830;28;20061;-73
2022/10/24 05:29:54;;;;;;;6.47;2.42;;;;;;;12.29;100.00;99893.41;5163182;28;20366;-72
2022/10/24 05:32:25;;;;;;;6.55;2.40;;;;;;;12.37;100.00;99893.84;5170537;28;20416;-72
2022/10/24 05:34:55;;;;;;;11.30;3.35;;;;;;;12.48;100.00;99894.09;5166415;28;21552;-72
2022/10/24 05:37:26;;;;;;;9.10;2.67;;;;;;;12.66;100.00;99892.28;5174411;28;20428;-72
2022/10/24 05:39:56;;;;;;;7.07;2.83;;;;;;;12.85;100.00;99890.31;5170017;28;20022;-72
2022/10/24 05:42:26;;;;;;;10.07;3.00;;;;;;;12.98;100.00;99896.63;5165454;28;20061;-72
2022/10/24 05:44:56;;;;;;;6.78;3.00;;;;;;;13.02;100.00;99891.09;5167728;28;20030;-72
2022/10/24 05:47:27;;;;;;;13.65;3.20;;;;;;;13.03;100.00;99888.41;5172008;28;20080;-72
2022/10/24 05:49:57;;;;;;;10.83;3.00;;;;;;;13.11;100.00;99882.72;5167928;28;20392;-72
2022/10/24 05:52:27;;;;;;;9.25;3.00;;;;;;;13.14;100.00;99885.16;5171523;28;20396;-72
2022/10/24 05:54:58;;;;;;;10.05;2.90;;;;;;;13.22;100.00;99882.97;5170606;28;20023;-73
2022/10/24 05:57:28;;;;;;;9.65;3.25;;;;;;;13.25;100.00;99885.41;5167034;28;20036;-72
2022/10/24 05:59:59;;;;;;;11.65;2.97;;;;;;;13.30;100.00;99885.97;5168063;28;20022;-73
2022/10/24 06:02:29;;;;;;;9.48;3.20;;;;;;;13.24;100.00;99878.47;5170728;28;20026;-73
2022/10/24 06:05:00;;;;;;;8.88;3.50;;;;;;;13.25;100.00;99883.59;5168059;28;20033;-73
2022/10/24 06:07:30;;;;;;;9.52;2.85;;;;;;;13.23;100.00;99884.66;5162506;28;20056;-72
2022/10/24 06:10:02;;;;;;;10.27;3.10;;;;;;;13.22;100.00;99878.53;5168867;28;20030;-72
2022/10/24 06:12:34;;;;;;;9.88;2.90;;;;;;;13.32;100.00;99878.84;5164622;28;20030;-72
2022/10/24 06:15:06;;;;;;;11.15;2.90;;;;;;;13.41;100.00;99886.22;5165968;28;20034;-72
2022/10/24 06:17:37;;;;;;;9.75;2.70;;;;;;;13.41;100.00;99883.59;5167463;28;20468;-72
2022/10/24 06:20:08;;;;;;;11.25;2.40;;;;;;;13.45;100.00;99893.84;5167966;28;20116;-73
2022/10/24 06:22:38;;;;;;;9.32;2.45;;;;;;;13.48;100.00;99891.03;5170347;28;20032;-72
2022/10/24 06:25:09;;;;;;;10.23;2.60;;;;;;;13.49;100.00;99894.47;5166324;28;20017;-72
2022/10/24 06:27:40;;;;;;;10.85;2.50;;;;;;;13.48;100.00;99898.91;5164424;28;20026;-72
2022/10/24 06:30:10;;;;;;;13.32;2.78;;;;;;;13.58;100.00;99892.16;5166832;28;20522;-72
2022/10/24 06:32:41;;;;;;;7.97;2.53;;;;;;;13.69;100.00;99902.88;5170629;28;20041;-72
2022/10/24 06:35:13;;;;;;;9.73;2.88;;;;;;;13.72;100.00;99897.44;5170600;28;20026;-72
2022/10/24 06:37:44;;;;;;;12.70;2.92;;;;;;;13.77;100.00;99897.19;5170126;28;20034;-72
2022/10/24 06:40:16;;;;;;;8.10;2.78;;;;;;;13.85;100.00;99897.56;5171333;28;20032;-72
2022/10/24 06:42:46;;;;;;;11.25;3.45;;;;;;;13.88;100.00;99897.41;5174414;28;20117;-72
2022/10/24 06:45:18;;;;;;;9.20;2.95;;;;;;;13.83;100.00;99902.94;5170072;28;20108;-72
2022/10/24 06:47:50;;;;;;;14.07;2.90;;;;;;;13.91;100.00;99898.03;5168932;28;20023;-72
2022/10/24 06:50:20;;;;;;;11.25;2.95;;;;;;;13.79;100.00;99893.53;5167848;28;20069;-72
2022/10/24 06:52:50;;;;;;;7.10;3.00;;;;;;;13.83;100.00;99894.19;5167855;28;20072;-71
2022/10/24 06:55:20;;;;;;;10.60;2.90;;;;;;;13.95;100.00;99901.34;5166263;28;20457;-72
2022/10/24 06:57:52;;;;;;;8.68;2.72;;;;;;;13.88;100.00;99897.41;5165797;28;20611;-72
2022/10/24 07:00:22;;;;;;;10.32;2.90;;;;;;;13.87;100.00;99900.94;5167497;28;20032;-71
2022/10/24 07:02:52;;;;;;;9.43;3.00;;;;;;;13.83;100.00;99904.69;5169740;28;20038;-71
2022/10/24 07:05:23;;;;;;;12.85;2.58;;;;;;;13.86;100.00;99897.47;5171010;28;20495;-71
2022/10/24 07:07:53;;;;;;;8.65;3.45;;;;;;;13.91;100.00;99912.97;5167367;28;20037;-71
2022/10/24 07:10:23;;;;;;;12.13;2.80;;;;;;;13.93;100.00;99903.22;5164774;28;20534;-72
2022/10/24 07:12:54;;;;;;;11.55;2.95;;;;;;;14.01;100.00;99895.72;5164282;28;20034;-71
2022/10/24 07:15:24;;;;;;;13.88;3.50;;;;;;;13.98;100.00;99903.78;5169302;28;20484;-71
2022/10/24 07:17:54;;;;;;;9.02;3.28;;;;;;;14.01;100.00;99906.22;5166622;28;20061;-71
2022/10/24 07:20:25;;;;;;;8.68;2.90;;;;;;;14.18;100.00;99911.34;5167917;28;20026;-70
2022/10/24 07:22:55;;;;;;;13.57;2.58;;;;;;;14.09;100.00;99919.75;5166584;28;20030;-71
2022/10/24 07:25:25;;;;;;;11.60;2.95;;;;;;;14.10;100.00;99914.38;5164689;28;20377;-70
2022/10/24 07:27:55;;;;;;;14.00;2.90;;;;;;;14.18;100.00;99911.34;5164240;28;20032;-71
2022/10/24 07:30:26;;;;;;;15.38;2.85;;;;;;;14.40;100.00;99903.84;5167130;28;20045;-72
2022/10/24 07:32:56;;;;;;;8.73;2.97;;;;;;;14.39;100.00;99915.31;5167777;28;20084;-71
2022/10/24 07:35:26;;;;;;;10.02;2.55;;;;;;;14.36;100.00;99915.47;5169491;28;20041;-73
2022/10/24 07:37:57;;;;;;;12.00;2.78;;;;;;;14.36;100.00;99910.22;5165175;28;20574;-72
2022/10/24 07:40:27;;;;;;;12.88;2.70;;;;;;;14.43;100.00;99912.38;5163984;28;20034;-70
2022/10/24 07:42:57;;;;;;;8.80;2.65;;;;;;;14.52;100.00;99913.59;5165671;28;20026;-71
2022/10/24 07:45:28;;;;;;;11.07;2.50;;;;;;;14.58;100.00;99915.84;5168140;28;20030;-71
2022/10/24 07:47:59;;;;;;;8.38;2.25;;;;;;;14.72;100.00;99913.19;5166505;28;20030;-71
2022/10/24 07:50:29;;;;;;;10.60;2.60;;;;;;;14.87;100.00;99910.44;5170517;28;20065;-72
2022/10/24 07:53:00;;;;;;;9.55;2.38;;;;;;;15.29;100.00;99908.56;5165146;28;20371;-71
2022/10/24 07:55:30;;;;;;;10.73;2.50;;;;;;;15.63;100.00;99905.41;5163780;28;20099;-71
2022/10/24 07:58:00;;;;;;;11.82;2.50;;;;;;;16.55;100.00;99897.19;5167003;28;20427;-72
2022/10/24 08:00:31;;;;;;;11.93;2.53;;;;;;;17.13;100.00;99892.91;5167330;28;20113;-72
2022/10/24 08:03:02;;;;;;;8.98;1.80;;;;;;;17.24;100.00;99902.69;5167319;28;20057;-72
2022/10/24 08:05:32;;;;;;;6.50;1.80;;;;;;;17.40;100.00;99904.13;5170412;28;20029;-72
2022/10/24 08:08:03;;;;;;;7.78;1.58;;;;;;;17.44;100.00;99900.31;5166086;28;20193;-72
2022/10/24 08:10:33;;;;;;;10.90;1.75;;;;;;;17.71;100.00;99907.97;5160220;28;20433;-71
2022/10/24 08:13:04;;;;;;;6.50;1.50;;;;;;;17.85;100.00;99900.69;5168034;28;20034;-71
2022/10/24 08:15:34;;;;;;;9.15;1.92;;;;;;;17.94;100.00;99904.44;5167834;28;20023;-71
2022/10/24 08:18:04;;;;;;;5.65;1.80;;;;;;;17.91;100.00;99907.31;5168246;28;20057;-72
2022/10/24 08:20:35;;;;;;;7.03;1.40;;;;;;;17.80;100.00;99902.84;5170312;28;20035;-71
2022/10/24 08:23:05;;;;;;;6.43;1.65;;;;;;;17.81;100.00;99901.06;5168341;28;20029;-72
2022/10/24 08:25:39;;;;;;;8.73;1.95;;;;;;;18.06;100.00;99909.66;5167089;28;20624;-73
2022/10/24 08:28:09;;;;;;;6.18;1.52;;;;;;;17.98;100.00;99903.25;5169182;28;20034;-72
2022/10/24 08:30:39;;;;;;;5.85;1.45;;;;;;;18.02;100.00;99900.22;5173135;28;20021;-71
2022/10/24 08:33:10;;;;;;;7.65;1.48;;;;;;;18.14;100.00;99890.53;5170629;28;20436;-72
2022/10/24 08:35:42;;;;;;;8.40;1.65;;;;;;;18.20;100.00;99884.75;5170811;28;20022;-72
2022/10/24 08:38:12;;;;;;;5.75;1.73;;;;;;;18.08;100.00;99886.56;5168697;28;20029;-72
2022/10/24 08:40:47;;;;;;;7.90;1.52;;;;;;;18.24;100.00;99886.22;5165747;28;20033;-73
2022/10/24 08:43:18;;;;;;;7.00;1.70;;;;;;;18.25;100.00;99877.31;5168864;28;20039;-72
2022/10/24 08:46:29;;;;;;;8.05;1.50;;;;;;;18.29;100.00;99892.88;5170040;28;20038;-71
2022/10/24 08:49:10;;;;;;;9.60;1.75;;;;;;;18.20;100.00;99874.19;5174204;28;20069;-72
2022/10/24 08:51:54;;;;;;;8.27;1.75;;;;;;;18.25;100.00;99882.59;5159451;28;20018;-72
2022/10/24 08:54:30;;;;;;;7.53;1.60;;;;;;;18.30;100.00;99885.75;5167274;28;20044;-71
2022/10/24 08:57:01;;;;;;;7.10;1.65;;;;;;;18.34;100.00;99881.94;5173259;28;20326;-72
2022/10/24 08:59:34;;;;;;;6.85;1.52;;;;;;;18.35;100.00;99873.84;5173316;28;20555;-73
2022/10/24 09:02:17;;;;;;;5.85;1.60;;;;;;;18.18;100.00;99879.59;5171198;28;20087;-72
2022/10/24 09:04:58;;;;;;;8.32;1.65;;;;;;;18.32;100.00;99878.56;5171328;28;20033;-72
2022/10/24 09:07:28;;;;;;;5.35;1.60;;;;;;;18.32;100.00;99879.38;5170217;28;20087;-72
2022/10/24 09:10:12;;;;;;;8.32;1.38;;;;;;;18.45;98.82;99877.47;5175916;28;20030;-72
2022/10/24 09:12:42;;;;;;;7.32;1.80;;;;;;;18.48;99.09;99889.63;5168921;28;20057;-72
2022/10/24 09:15:26;;;;;;;6.03;1.60;;;;;;;18.49;97.90;99886.03;5176123;28;20018;-72
2022/10/24 09:17:58;;;;;;;8.30;1.58;;;;;;;18.51;95.42;99884.09;5174482;28;20022;-72
2022/10/24 09:20:32;;;;;;;4.10;1.27;;;;;;;18.46;97.01;99881.81;5171146;28;20033;-72
2022/10/24 09:23:04;;;;;;;5.00;1.35;;;;;;;18.54;95.91;99876.72;5166337;28;20492;-71
2022/10/24 09:25:39;;;;;;;6.20;1.48;;;;;;;18.51;95.79;99881.44;5172110;28;20128;-72
2022/10/24 09:28:10;;;;;;;8.07;1.58;;;;;;;18.54;96.71;99881.19;5168358;28;20117;-72
2022/10/24 09:30:41;;;;;;;7.20;1.42;;;;;;;18.61;94.96;99885.88;5170864;28;20037;-72
2022/10/24 09:33:32;;;;;;;10.57;2.28;;;;;;;18.59;95.03;99879.03;5172265;28;20045;-72
2022/10/24 09:36:03;;;;;;;6.03;1.30;;;;;;;18.70;95.42;99876.38;5170634;28;20022;-72
2022/10/24 09:38:36;;;;;;;9.90;1.75;;;;;;;18.85;92.76;99883.91;5164599;28;20103;-72
2022/10/24 09:41:13;;;;;;;5.43;1.67;;;;;;;18.78;95.50;99877.44;5167429;28;20073;-72
2022/10/24 09:43:44;;;;;;;9.05;1.40;;;;;;;18.66;93.74;99886.34;5170791;28;20030;-72
2022/10/24 09:46:34;;;;;;;5.75;1.50;;;;;;;18.61;96.71;99887.69;5169198;28;20072;-72
2022/10/24 09:49:11;;;;;;;6.90;1.73;;;;;;;18.61;95.82;99879.72;5172553;28;20022;-72
2022/10/24 09:52:03;;;;;;;7.55;1.50;;;;;;;18.57;97.29;99878.31;5166998;28;20400;-73
2022/10/24 09:54:35;;;;;;;6.05;1.42;;;;;;;18.59;94.29;99881.66;5166851;28;20037;-72
2022/10/24 09:57:13;;;;;;;10.57;1.60;;;;;;;18.55;94.31;99883.72;5169836;28;20021;-72
2022/10/24 09:59:56;;;;;;;8.85;1.42;;;;;;;18.58;96.21;99893.22;5169870;28;20032;-72
2022/10/24 10:02:33;;;;;;;10.40;1.77;;;;;;;18.57;94.82;99891.53;5172810;28;20034;-71
2022/10/24 10:05:03;;;;;;;4.05;1.50;;;;;;;18.59;93.95;99889.59;5169002;28;20053;-72
2022/10/24 10:07:43;;;;;;;5.93;1.50;;;;;;;18.73;94.69;99887.56;5164519;28;20068;-72
2022/10/24 10:10:33;;;;;;;10.05;2.08;;;;;;;18.74;94.94;99883.97;5168108;28;20475;-72
2022/10/24 10:13:16;;;;;;;6.70;1.30;;;;;;;18.80;93.74;99883.47;5170333;28;20121;-72
2022/10/24 10:15:52;;;;;;;5.47;1.50;;;;;;;18.80;93.81;99878.97;5167496;28;20113;-72
2022/10/24 10:18:25;;;;;;;7.40;1.70;;;;;;;18.81;91.67;99885.13;5172402;28;20164;-72
2022/10/24 10:21:17;;;;;;;9.10;1.45;;;;;;;18.94;92.88;99876.06;5167469;28;20029;-72
2022/10/24 10:23:54;;;;;;;11.43;1.77;;;;;;;18.94;91.81;99884.03;5169197;28;20037;-72
2022/10/24 10:26:40;;;;;;;10.48;2.05;;;;;;;18.96;91.75;99897.97;5169917;28;20026;-72
2022/10/24 10:29:19;;;;;;;6.82;1.65;;;;;;;19.07;92.09;99902.44;5166289;28;20037;-73
2022/10/24 10:32:30;;;;;;;6.05;1.60;;;;;;;19.22;91.06;99893.25;5170482;28;20034;-73
2022/10/24 10:35:13;;;;;;;6.70;1.30;;;;;;;19.25;90.13;99899.16;5170994;28;20491;-72
2022/10/24 10:38:21;;;;;;;9.32;1.50;;;;;;;19.24;91.35;99902.75;5168942;28;20037;-73
2022/10/24 10:41:02;;;;;;;7.57;1.50;;;;;;;19.35;88.73;99901.88;5170223;28;20108;-73
2022/10/24 10:43:46;;;;;;;4.97;1.17;;;;;;;19.46;88.84;99907.97;5164085;28;20088;-72
2022/10/24 10:46:29;;;;;;;8.45;1.75;;;;;;;19.61;88.42;99916.50;5165613;28;20555;-72
2022/10/24 10:49:26;;;;;;;6.15;1.60;;;;;;;19.42;87.28;99919.81;5169092;28;20038;-72
2022/10/24 10:52:01;;;;;;;;;;;;;;;19.47;87.99;99916.78;5164981;28;20323;-73
2022/10/24 10:54:53;;;;;;;10.48;1.63;;;;;;;19.38;89.06;99907.78;5166185;28;19917;-72
2022/10/24 10:57:32;;;;;;;8.05;1.52;;;;;;;19.47;89.43;99908.84;5167663;28;20034;-73
2022/10/24 11:00:08;;;;;;;7.63;1.60;;;;;;;19.68;88.08;99913.22;5168111;28;20097;-73
2022/10/24 11:03:08;;;;;;;8.63;1.50;;;;;;;19.53;90.12;99919.78;5169117;28;20300;-72
2022/10/24 11:06:03;;;;;;;10.50;1.60;;;;;;;19.51;88.09;99928.81;5166378;28;20033;-72
2022/10/24 11:08:55;;;;;;;8.20;1.77;;;;;;;19.53;87.05;99925.09;5164502;28;20523;-73
2022/10/24 11:11:35;;;;;;;6.43;1.70;;;;;;;19.62;88.28;99920.84;5165843;28;20026;-72
2022/10/24 11:14:24;;;;;;;7.22;1.42;;;;;;;19.78;88.29;99931.84;5166899;28;20045;-72
2022/10/24 11:17:00;;;;;;;8.45;1.60;;;;;;;19.77;89.98;99933.66;5169484;28;20046;-72
2022/10/24 11:19:52;;;;;;;8.73;1.67;;;;;;;19.77;89.68;99941.59;5164725;28;20057;-73
2022/10/24 11:22:27;;;;;;;9.60;1.77;;;;;;;19.87;87.00;99939.88;5162419;28;20076;-73
2022/10/24 11:25:04;;;;;;;9.85;1.90;;;;;;;19.79;85.94;99946.78;5168895;28;20076;-72
2022/10/24 11:27:43;;;;;;;8.00;1.98;;;;;;;19.90;87.59;99938.75;5168974;28;20103;-73
2022/10/24 11:30:16;;;;;;;8.45;1.85;;;;;;;19.75;86.57;99946.19;5169122;28;20507;-73
2022/10/24 11:32:53;;;;;;;8.00;1.83;;;;;;;19.77;86.77;99949.56;5167909;28;20026;-72
2022/10/24 11:35:28;;;;;;;7.15;1.20;;;;;;;19.65;89.05;99945.25;5164520;28;20428;-72
2022/10/24 11:38:12;;;;;;;5.25;1.30;;;;;;;19.64;86.99;99948.88;5165987;28;20030;-72
2022/10/24 11:40:46;;;;;;;7.05;1.70;;;;;;;19.63;88.61;99952.50;5168874;28;20403;-73
2022/10/24 11:43:34;;;;;;;9.53;1.70;;;;;;;19.41;86.78;99949.94;5168297;28;20037;-72
2022/10/24 11:46:31;;;;;;;5.07;1.55;;;;;;;19.26;87.71;99953.00;5167891;28;20190;-72
2022/10/24 11:49:18;;;;;;;7.55;1.55;;;;;;;19.16;86.98;99942.31;5164381;28;20046;-73
2022/10/24 11:51:59;;;;;;;6.40;1.45;;;;;;;19.14;89.04;99941.53;5167761;28;20037;-72
2022/10/24 11:54:38;;;;;;;10.20;1.50;;;;;;;19.16;90.01;99941.41;5171224;28;20077;-73
2022/10/24 11:57:17;;;;;;;6.28;1.40;;;;;;;19.11;89.57;99941.78;5171334;28;20441;-73
2022/10/24 11:59:51;;;;;;;5.05;1.60;;;;;;;19.25;88.39;99930.94;5170108;28;20034;-73